Terminal Aerodrome Forecast
Issued by NWS Paducah, KY

Home | Current Version | Previous Version | Text Only | Print | Product List | Glossary On
Versions: 1 2 3 4 5 6 7 8 9 10 11 12 13
050
FTUS43 KPAH 242328
TAFEVV
TAF
KEVV 242328Z 2500/2524 20008KT P6SM SCT120 BKN200
     FM251200 27007KT P6SM SCT200
     FM251600 33010KT P6SM SKC=

USA.gov is the U.S. government's official web portal to all federal, state and local government web resources and services.